Terminal Aerodrome Forecast
Issued by NWS Twin Cities, MN

Home | Current Version | Previous Version | Text Only | Print | Product List | Glossary Off
Versions: 1 2 3 4 5 6 7 8 9 10 11 12 13 14 15 16 17

000
FTUS43 KMPX 261122
TAFEAU
TAF
KEAU 261122Z 2612/2712 VRB03KT 4SM -RA BR SCT002 OVC005
      TEMPO 2612/2614 1SM RA BR OVC002
     FM261600 26007KT P6SM OVC007
     FM262000 27010KT P6SM OVC015
     FM270200 29007KT P6SM BKN015 BKN025
     FM270600 29007KT P6SM BKN025
     FM270900 28007KT P6SM SCT030=

USA.gov is the U.S. government's official web portal to all federal, state and local government web resources and services.